createdAt,value
2022-07-31T00:03:05.679Z,15.43
2022-07-31T00:05:38.726Z,15.45
2022-07-31T00:08:10.223Z,15.45
2022-07-31T00:10:38.552Z,15.36
2022-07-31T00:13:05.410Z,15.33
2022-07-31T00:15:32.754Z,15.27
2022-07-31T00:18:00.482Z,15.27
2022-07-31T00:20:27.338Z,15.25
2022-07-31T00:22:54.900Z,15.17
2022-07-31T00:25:41.533Z,15.02
2022-07-31T00:31:09.113Z,14.93
2022-07-31T00:33:38.749Z,14.87
2022-07-31T00:36:21.059Z,14.80
2022-07-31T00:39:15.874Z,14.80
2022-07-31T00:42:02.741Z,14.82
2022-07-31T00:44:48.795Z,14.92
2022-07-31T00:47:30.128Z,14.99
2022-07-31T00:50:05.477Z,15.04
2022-07-31T00:53:14.739Z,15.04
2022-07-31T00:55:51.291Z,15.01
2022-07-31T00:58:39.454Z,14.98
2022-07-31T01:01:22.338Z,14.96
2022-07-31T01:03:57.269Z,14.89
2022-07-31T01:09:48.027Z,14.71
2022-07-31T01:12:50.968Z,14.58
2022-07-31T01:15:32.102Z,14.46
2022-07-31T01:18:00.227Z,14.38
2022-07-31T01:20:33.487Z,14.28
2022-07-31T01:23:30.224Z,14.18
2022-07-31T01:26:43.681Z,14.10
2022-07-31T01:29:53.952Z,14.05
2022-07-31T01:32:38.957Z,14.00
2022-07-31T01:35:33.064Z,13.97
2022-07-31T01:38:45.636Z,13.97
2022-07-31T01:41:32.681Z,13.98
2022-07-31T01:44:14.294Z,14.00
2022-07-31T01:47:01.001Z,14.06
2022-07-31T01:49:40.616Z,14.13
2022-07-31T01:52:11.498Z,14.18
2022-07-31T01:54:43.396Z,14.19
2022-07-31T01:57:13.157Z,14.16
2022-07-31T02:00:05.637Z,14.10
2022-07-31T02:04:00.383Z,14.06
2022-07-31T02:06:28.740Z,14.07
2022-07-31T02:08:56.549Z,14.07
2022-07-31T02:11:27.031Z,14.08
2022-07-31T02:13:55.097Z,14.07
2022-07-31T02:16:24.074Z,14.06
2022-07-31T02:19:04.530Z,14.10
2022-07-31T02:21:49.317Z,14.09
2022-07-31T02:24:31.051Z,14.06
2022-07-31T02:27:57.684Z,14.08
2022-07-31T02:31:02.628Z,14.03
2022-07-31T02:33:42.101Z,14.14
2022-07-31T02:36:22.765Z,14.14
2022-07-31T02:38:53.003Z,14.16
2022-07-31T02:41:27.550Z,14.18
2022-07-31T02:43:54.961Z,14.30
2022-07-31T02:46:24.292Z,14.38
2022-07-31T02:48:52.211Z,14.47
2022-07-31T02:51:23.373Z,14.47
2022-07-31T02:53:53.497Z,14.43
2022-07-31T02:56:29.522Z,14.39
2022-07-31T02:58:57.287Z,14.41
2022-07-31T03:02:01.810Z,14.42
2022-07-31T03:04:40.806Z,14.43
2022-07-31T03:07:23.281Z,14.43
2022-07-31T03:09:56.202Z,14.58
2022-07-31T03:13:03.497Z,14.80
2022-07-31T03:15:51.098Z,14.92
2022-07-31T03:19:01.334Z,14.97
2022-07-31T03:24:54.107Z,15.50
2022-07-31T03:27:28.236Z,15.56
2022-07-31T03:30:22.953Z,15.64
2022-07-31T03:33:04.588Z,15.65
2022-07-31T03:35:39.095Z,15.55
2022-07-31T03:38:40.803Z,15.56
2022-07-31T03:42:13.031Z,15.67
2022-07-31T03:45:10.405Z,15.84
2022-07-31T03:47:51.775Z,15.89
2022-07-31T03:58:38.609Z,15.87
2022-07-31T04:01:24.258Z,15.84
2022-07-31T04:04:19.126Z,15.84
2022-07-31T04:07:09.440Z,15.84
2022-07-31T04:13:12.243Z,15.92
2022-07-31T04:15:54.121Z,15.96
2022-07-31T04:19:05.778Z,16.02
2022-07-31T04:25:37.061Z,16.11
2022-07-31T04:28:26.906Z,16.10
2022-07-31T04:31:04.466Z,16.11
2022-07-31T04:34:22.931Z,16.14
2022-07-31T04:40:21.767Z,16.22
2022-07-31T04:43:05.051Z,16.39
2022-07-31T04:45:46.762Z,16.46
2022-07-31T04:48:57.962Z,16.61
2022-07-31T04:51:29.125Z,16.74
2022-07-31T04:54:21.899Z,16.76
2022-07-31T04:57:41.103Z,16.96
2022-07-31T05:00:40.827Z,17.23
2022-07-31T05:03:26.044Z,17.32
2022-07-31T05:06:44.483Z,17.49
2022-07-31T05:09:19.230Z,17.57
2022-07-31T05:11:58.666Z,17.71
2022-07-31T05:18:13.878Z,18.34
2022-07-31T05:21:27.437Z,19.61
2022-07-31T05:24:39.234Z,19.40
2022-07-31T05:27:43.701Z,19.06
2022-07-31T05:30:30.914Z,18.62
2022-07-31T05:33:08.910Z,18.48
2022-07-31T05:35:53.774Z,18.06
2022-07-31T05:38:40.084Z,18.05
2022-07-31T05:42:01.389Z,17.86
2022-07-31T05:44:49.176Z,17.81
2022-07-31T05:47:40.703Z,17.77
2022-07-31T05:50:30.390Z,17.82
2022-07-31T05:53:05.734Z,17.73
2022-07-31T05:55:54.884Z,17.67
2022-07-31T05:58:42.172Z,17.76
2022-07-31T06:01:18.349Z,18.05
2022-07-31T06:03:51.883Z,18.24
2022-07-31T06:06:31.584Z,18.28
2022-07-31T06:09:04.331Z,18.62
2022-07-31T06:11:36.563Z,18.84
2022-07-31T06:14:03.823Z,19.01
2022-07-31T06:16:53.194Z,19.27
2022-07-31T06:19:26.664Z,19.42
2022-07-31T06:21:56.492Z,19.56
2022-07-31T06:24:46.699Z,20.03
2022-07-31T06:27:22.062Z,20.32
2022-07-31T06:30:13.105Z,20.74
2022-07-31T06:32:50.380Z,21.62
2022-07-31T06:35:28.640Z,22.04
2022-07-31T06:39:04.097Z,21.85
2022-07-31T06:45:35.675Z,21.56
2022-07-31T06:55:44.217Z,21.57
2022-07-31T06:58:36.601Z,21.63
2022-07-31T07:01:27.192Z,21.86
2022-07-31T07:10:56.030Z,21.69
2022-07-31T07:13:44.892Z,22.04
2022-07-31T07:16:29.175Z,21.63
2022-07-31T07:19:02.961Z,21.59
2022-07-31T07:22:15.727Z,21.70
2022-07-31T07:25:10.051Z,21.58
2022-07-31T07:28:02.923Z,21.73
2022-07-31T07:30:43.088Z,21.47
2022-07-31T07:36:32.673Z,21.97
2022-07-31T07:39:52.598Z,21.73
2022-07-31T07:42:22.740Z,21.52
2022-07-31T07:45:06.501Z,21.82
2022-07-31T07:48:05.633Z,21.87
2022-07-31T07:51:11.004Z,22.14
2022-07-31T07:53:54.074Z,21.84
2022-07-31T07:57:19.768Z,22.00
2022-07-31T08:00:43.396Z,21.80
2022-07-31T08:04:06.403Z,21.91
2022-07-31T08:06:43.015Z,21.66
2022-07-31T08:09:48.348Z,21.89
2022-07-31T08:12:46.245Z,22.04
2022-07-31T08:15:31.905Z,21.99
2022-07-31T08:18:33.487Z,21.99
2022-07-31T08:23:59.999Z,22.32
2022-07-31T08:33:42.313Z,23.11
2022-07-31T08:36:47.573Z,22.67
2022-07-31T08:45:53.004Z,22.82
2022-07-31T08:48:59.381Z,22.83
2022-07-31T08:51:54.654Z,23.26
2022-07-31T08:55:24.654Z,23.68
2022-07-31T08:58:10.179Z,23.93
2022-07-31T09:01:19.933Z,24.14
2022-07-31T09:04:21.852Z,24.19
2022-07-31T09:07:01.241Z,24.32
2022-07-31T09:14:04.879Z,25.30
2022-07-31T09:23:07.856Z,25.17
2022-07-31T09:25:52.351Z,25.11
2022-07-31T09:28:34.657Z,25.62
2022-07-31T09:31:36.774Z,26.00
2022-07-31T09:34:32.252Z,26.10
2022-07-31T09:37:25.064Z,25.56
2022-07-31T09:41:00.044Z,25.55
2022-07-31T09:44:09.431Z,25.16
2022-07-31T09:47:01.708Z,25.01
2022-07-31T09:49:38.621Z,25.63
2022-07-31T09:52:08.376Z,25.88
2022-07-31T09:55:18.571Z,26.21
2022-07-31T09:58:32.606Z,25.42
2022-07-31T10:01:19.791Z,25.02
2022-07-31T10:04:00.328Z,25.97
2022-07-31T10:06:49.302Z,25.16
2022-07-31T10:10:28.900Z,25.33
2022-07-31T10:13:11.941Z,25.89
2022-07-31T10:15:41.068Z,25.46
2022-07-31T10:18:37.335Z,25.18
2022-07-31T10:21:17.947Z,25.60
2022-07-31T10:23:53.851Z,25.12
2022-07-31T10:26:34.297Z,25.50
2022-07-31T10:29:10.717Z,26.21
2022-07-31T10:31:39.007Z,26.39
2022-07-31T10:34:06.855Z,26.82
2022-07-31T10:36:56.166Z,26.73
2022-07-31T10:40:21.092Z,26.56
2022-07-31T10:43:03.209Z,26.58
2022-07-31T10:45:32.199Z,26.19
2022-07-31T10:48:21.007Z,25.86
2022-07-31T10:51:10.324Z,26.14
2022-07-31T10:53:59.061Z,26.96
2022-07-31T10:56:46.455Z,26.74
2022-07-31T10:59:31.067Z,26.48
2022-07-31T11:02:15.277Z,25.85
2022-07-31T11:05:28.250Z,26.02
2022-07-31T11:08:18.570Z,26.36
2022-07-31T11:10:54.274Z,26.19
2022-07-31T11:13:46.862Z,26.48
2022-07-31T11:16:49.929Z,26.38
2022-07-31T11:19:55.686Z,26.45
2022-07-31T11:22:30.933Z,26.31
2022-07-31T11:25:00.975Z,27.06
2022-07-31T11:27:32.467Z,26.75
2022-07-31T11:30:12.571Z,26.41
2022-07-31T11:32:41.116Z,25.97
2022-07-31T11:35:08.999Z,26.43
2022-07-31T11:37:56.327Z,26.05
2022-07-31T11:40:27.391Z,26.72
2022-07-31T11:43:23.471Z,25.98
2022-07-31T11:45:49.695Z,26.20
2022-07-31T11:48:19.102Z,26.62
2022-07-31T11:50:48.745Z,27.15
2022-07-31T11:53:17.752Z,26.46
2022-07-31T11:55:45.975Z,26.18
2022-07-31T11:58:14.745Z,26.52
2022-07-31T12:00:52.782Z,25.71
2022-07-31T12:03:22.225Z,25.61
2022-07-31T12:05:53.174Z,25.10
2022-07-31T12:08:21.988Z,25.35
2022-07-31T12:10:49.724Z,25.35
2022-07-31T12:13:18.938Z,24.77
2022-07-31T12:16:06.117Z,24.69
2022-07-31T12:18:54.810Z,24.94
2022-07-31T12:21:33.871Z,24.41
2022-07-31T12:24:02.361Z,24.34
2022-07-31T12:26:32.685Z,24.67
2022-07-31T12:29:11.553Z,24.03
2022-07-31T12:31:45.141Z,25.00
2022-07-31T12:34:13.366Z,25.21
2022-07-31T12:37:12.767Z,24.79
2022-07-31T12:40:00.614Z,25.16
2022-07-31T12:42:55.089Z,25.06
2022-07-31T12:45:44.553Z,24.98
2022-07-31T12:48:20.167Z,25.51
2022-07-31T12:51:15.336Z,25.87
2022-07-31T13:00:43.823Z,25.56
2022-07-31T13:03:11.123Z,25.44
2022-07-31T13:05:38.483Z,25.43
2022-07-31T13:08:06.071Z,25.80
2022-07-31T13:10:33.332Z,25.85
2022-07-31T13:13:01.710Z,26.03
2022-07-31T13:15:31.762Z,26.03
2022-07-31T13:18:02.553Z,25.65
2022-07-31T13:20:31.235Z,24.89
2022-07-31T13:23:00.248Z,25.26
2022-07-31T13:25:30.541Z,24.56
2022-07-31T13:27:59.878Z,24.75
2022-07-31T13:30:29.288Z,25.29
2022-07-31T13:32:56.562Z,25.01
2022-07-31T13:35:29.035Z,25.13
2022-07-31T13:37:57.762Z,25.84
2022-07-31T13:40:44.747Z,25.61
2022-07-31T13:43:12.750Z,25.24
2022-07-31T13:45:40.290Z,25.63
2022-07-31T13:48:10.228Z,25.44
2022-07-31T13:50:42.373Z,25.64
2022-07-31T13:53:10.479Z,25.00
2022-07-31T13:55:38.166Z,25.47
2022-07-31T13:58:05.310Z,25.35
2022-07-31T14:00:32.435Z,24.67
2022-07-31T14:02:59.260Z,24.56
2022-07-31T14:05:27.631Z,24.70
2022-07-31T14:07:56.457Z,24.75
2022-07-31T14:10:44.162Z,24.91
2022-07-31T14:13:16.975Z,24.55
2022-07-31T14:15:44.749Z,24.37
2022-07-31T14:18:13.206Z,24.31
2022-07-31T14:20:40.317Z,23.59
2022-07-31T14:23:13.012Z,23.83
2022-07-31T14:25:42.067Z,23.86
2022-07-31T14:28:10.281Z,23.84
2022-07-31T14:30:37.981Z,23.85
2022-07-31T14:33:05.438Z,24.08
2022-07-31T14:35:33.814Z,24.36
2022-07-31T14:38:04.118Z,23.90
2022-07-31T14:40:31.932Z,24.21
2022-07-31T14:42:59.003Z,24.28
2022-07-31T14:45:26.156Z,24.20
2022-07-31T14:47:55.195Z,23.38
2022-07-31T14:50:24.008Z,22.98
2022-07-31T14:52:51.813Z,22.76
2022-07-31T14:55:25.018Z,22.48
2022-07-31T14:57:52.503Z,22.34
2022-07-31T15:00:19.944Z,22.34
2022-07-31T15:02:49.909Z,22.07
2022-07-31T15:06:39.593Z,22.01
2022-07-31T15:08:05.728Z,21.84
2022-07-31T15:10:32.817Z,21.84
2022-07-31T15:13:02.229Z,21.59
2022-07-31T15:15:29.724Z,21.22
2022-07-31T15:18:01.952Z,21.15
2022-07-31T15:20:32.597Z,20.65
2022-07-31T15:23:00.765Z,19.91
2022-07-31T15:25:27.889Z,19.73
2022-07-31T15:27:55.005Z,19.54
2022-07-31T15:30:22.725Z,19.51
2022-07-31T15:32:52.486Z,19.53
2022-07-31T15:35:20.086Z,19.33
2022-07-31T15:37:47.353Z,19.41
2022-07-31T15:40:16.405Z,19.64
2022-07-31T15:42:45.792Z,19.62
2022-07-31T15:45:15.674Z,19.78
2022-07-31T15:47:44.757Z,19.99
2022-07-31T15:50:13.838Z,20.19
2022-07-31T15:52:41.971Z,20.53
2022-07-31T15:55:10.297Z,20.58
2022-07-31T15:57:37.913Z,20.45
2022-07-31T16:00:05.841Z,20.42
2022-07-31T16:02:39.103Z,20.32
2022-07-31T16:05:11.885Z,20.32
2022-07-31T16:08:31.204Z,20.35
2022-07-31T16:10:38.143Z,20.29
2022-07-31T16:13:06.799Z,20.24
2022-07-31T16:15:35.830Z,20.18
2022-07-31T16:18:04.406Z,20.16
2022-07-31T16:20:32.485Z,20.12
2022-07-31T16:23:03.672Z,20.38
2022-07-31T16:25:34.993Z,20.43
2022-07-31T16:28:04.739Z,20.48
2022-07-31T16:30:33.310Z,20.58
2022-07-31T16:33:00.460Z,20.35
2022-07-31T16:35:27.896Z,20.49
2022-07-31T16:37:54.735Z,20.61
2022-07-31T16:40:30.204Z,20.70
2022-07-31T16:43:49.273Z,20.75
2022-07-31T16:45:53.746Z,20.83
2022-07-31T16:48:20.878Z,20.87
2022-07-31T16:50:53.430Z,20.87
2022-07-31T16:54:13.070Z,20.75
2022-07-31T16:56:11.119Z,20.55
2022-07-31T16:58:38.176Z,20.65
2022-07-31T17:01:59.049Z,20.57
2022-07-31T17:04:02.610Z,20.60
2022-07-31T17:06:36.694Z,20.64
2022-07-31T17:09:17.238Z,20.63
2022-07-31T17:11:52.592Z,20.60
2022-07-31T17:14:21.683Z,20.66
2022-07-31T17:16:49.955Z,20.71
2022-07-31T17:19:41.850Z,20.74
2022-07-31T17:22:17.798Z,20.61
2022-07-31T17:24:50.413Z,20.81
2022-07-31T17:27:18.655Z,20.98
2022-07-31T17:29:45.705Z,21.44
2022-07-31T17:32:12.879Z,21.25
2022-07-31T17:34:41.234Z,21.16
2022-07-31T17:37:08.853Z,21.23
2022-07-31T17:39:50.693Z,21.23
2022-07-31T17:42:18.134Z,21.05
2022-07-31T17:45:09.704Z,20.88
2022-07-31T17:48:14.522Z,20.76
2022-07-31T17:51:07.239Z,20.57
2022-07-31T17:53:54.633Z,20.31
2022-07-31T18:02:14.010Z,20.15
2022-07-31T18:04:50.485Z,20.06
2022-07-31T18:07:29.899Z,20.09
2022-07-31T18:10:02.818Z,20.06
2022-07-31T18:12:56.801Z,20.04
2022-07-31T18:15:35.604Z,20.01
2022-07-31T18:21:55.850Z,19.71
2022-07-31T18:24:27.820Z,19.67
2022-07-31T18:30:24.342Z,19.22
2022-07-31T18:33:20.469Z,18.95
2022-07-31T18:35:54.606Z,18.79
2022-07-31T18:38:21.750Z,18.71
2022-07-31T18:40:48.742Z,18.67
2022-07-31T18:43:20.689Z,18.58
2022-07-31T18:45:48.192Z,18.68
2022-07-31T18:48:30.046Z,18.61
2022-07-31T18:54:13.383Z,18.64
2022-07-31T18:56:46.781Z,18.56
2022-07-31T18:59:29.446Z,18.59
2022-07-31T19:02:50.172Z,18.67
2022-07-31T19:05:45.320Z,18.65
2022-07-31T19:08:36.278Z,18.57
2022-07-31T19:11:05.976Z,18.57
2022-07-31T19:13:32.733Z,18.48
2022-07-31T19:16:02.037Z,18.49
2022-07-31T19:18:36.659Z,18.45
2022-07-31T19:21:23.435Z,18.47
2022-07-31T19:24:03.140Z,18.47
2022-07-31T19:26:35.641Z,18.41
2022-07-31T19:29:02.538Z,18.39
2022-07-31T19:31:40.372Z,18.35
2022-07-31T19:34:16.611Z,18.34
2022-07-31T19:36:49.753Z,18.38
2022-07-31T19:39:26.641Z,18.36
2022-07-31T19:42:12.398Z,18.35
2022-07-31T19:44:43.265Z,18.36
2022-07-31T19:47:17.835Z,18.33
2022-07-31T19:53:14.075Z,18.31
2022-07-31T19:55:44.148Z,18.29
2022-07-31T19:58:11.362Z,18.25
2022-07-31T20:00:55.323Z,18.25
2022-07-31T20:03:28.821Z,18.21
2022-07-31T20:05:59.191Z,18.19
2022-07-31T20:08:32.819Z,18.20
2022-07-31T20:11:11.507Z,18.16
2022-07-31T20:13:40.242Z,18.15
2022-07-31T20:16:10.192Z,18.11
2022-07-31T20:18:44.505Z,18.09
2022-07-31T20:21:11.614Z,18.07
2022-07-31T20:23:44.519Z,18.08
2022-07-31T20:26:18.783Z,18.08
2022-07-31T20:28:45.860Z,18.04
2022-07-31T20:31:15.935Z,18.06
2022-07-31T20:33:57.602Z,18.11
2022-07-31T20:36:32.664Z,18.08
2022-07-31T20:38:59.697Z,18.11
2022-07-31T20:41:27.843Z,18.10
2022-07-31T20:44:01.780Z,18.11
2022-07-31T20:46:28.644Z,18.08
2022-07-31T20:49:04.683Z,18.09
2022-07-31T20:51:35.229Z,18.06
2022-07-31T20:54:04.095Z,18.12
2022-07-31T20:56:32.114Z,18.06
2022-07-31T20:59:09.762Z,18.08
2022-07-31T21:01:51.164Z,18.11
2022-07-31T21:04:20.861Z,18.14
2022-07-31T21:06:50.650Z,18.03
2022-07-31T21:09:19.177Z,18.08
2022-07-31T21:11:48.997Z,18.08
2022-07-31T21:14:16.160Z,18.04
2022-07-31T21:17:01.294Z,18.08
2022-07-31T21:19:36.065Z,18.09
2022-07-31T21:22:13.077Z,18.14
2022-07-31T21:24:42.492Z,18.10
2022-07-31T21:27:14.981Z,18.09
2022-07-31T21:29:44.503Z,18.08
2022-07-31T21:32:14.655Z,18.01
2022-07-31T21:34:41.629Z,17.98
2022-07-31T21:39:53.067Z,18.03
2022-07-31T21:42:20.804Z,17.91
2022-07-31T21:44:53.560Z,17.92
2022-07-31T21:47:22.917Z,17.90
2022-07-31T21:49:54.117Z,17.86
2022-07-31T21:52:27.326Z,17.88
2022-07-31T21:54:54.396Z,17.91
2022-07-31T21:57:21.377Z,17.86
2022-07-31T21:59:52.866Z,17.91
2022-07-31T22:02:19.492Z,17.84
2022-07-31T22:05:04.856Z,17.83
2022-07-31T22:07:46.115Z,17.83
2022-07-31T22:10:18.303Z,17.86
2022-07-31T22:12:48.598Z,17.90
2022-07-31T22:15:16.403Z,17.92
2022-07-31T22:17:43.534Z,17.91
2022-07-31T22:20:11.365Z,17.92
2022-07-31T22:22:39.780Z,17.90
2022-07-31T22:25:07.744Z,17.97
2022-07-31T22:27:54.564Z,17.92
2022-07-31T22:30:26.653Z,17.91
2022-07-31T22:33:00.711Z,17.93
2022-07-31T22:35:28.576Z,17.92
2022-07-31T22:37:56.415Z,17.89
2022-07-31T22:40:24.381Z,17.95
2022-07-31T22:42:56.289Z,17.92
2022-07-31T22:45:25.058Z,17.95
2022-07-31T22:47:52.681Z,17.96
2022-07-31T22:50:22.297Z,17.92
2022-07-31T22:52:49.161Z,17.88
2022-07-31T22:55:16.101Z,17.84
2022-07-31T22:57:46.503Z,17.89
2022-07-31T23:00:15.112Z,17.86
2022-07-31T23:02:42.937Z,17.88
2022-07-31T23:05:10.525Z,17.86
2022-07-31T23:07:38.015Z,17.88
2022-07-31T23:10:07.170Z,17.85
2022-07-31T23:12:34.829Z,17.94
2022-07-31T23:15:01.781Z,17.86
2022-07-31T23:17:29.176Z,17.82
2022-07-31T23:19:56.524Z,17.82
2022-07-31T23:22:33.250Z,17.80
2022-07-31T23:25:02.201Z,17.75
2022-07-31T23:27:29.892Z,17.80
2022-07-31T23:29:58.757Z,17.77
2022-07-31T23:32:26.760Z,17.77
2022-07-31T23:34:53.883Z,17.78
2022-07-31T23:37:20.721Z,17.76
2022-07-31T23:39:47.630Z,17.78
2022-07-31T23:42:32.847Z,17.75
2022-07-31T23:45:00.022Z,17.84
2022-07-31T23:47:40.701Z,17.75
2022-07-31T23:50:14.148Z,17.75
2022-07-31T23:52:42.129Z,17.79
2022-07-31T23:55:12.948Z,17.76
2022-07-31T23:57:41.025Z,17.67
